createdAt,value
2022-10-30T00:00:40.998Z,0.00
2022-10-30T00:00:58.407Z,0.00
2022-10-30T00:01:29.445Z,0.00
2022-10-30T00:02:00.679Z,0.00
2022-10-30T00:02:31.416Z,0.00
2022-10-30T00:03:02.912Z,0.00
2022-10-30T00:03:33.411Z,0.00
2022-10-30T00:04:04.425Z,0.00
2022-10-30T00:04:35.381Z,0.00
2022-10-30T00:05:06.535Z,0.00
2022-10-30T00:05:38.377Z,0.00
2022-10-30T00:06:08.541Z,0.00
2022-10-30T00:06:39.403Z,0.00
2022-10-30T00:07:10.480Z,0.00
2022-10-30T00:07:41.437Z,0.00
2022-10-30T00:08:12.373Z,0.00
2022-10-30T00:08:43.377Z,0.00
2022-10-30T00:09:14.405Z,0.00
2022-10-30T00:09:45.359Z,0.00
2022-10-30T00:10:16.402Z,0.00
2022-10-30T00:10:48.426Z,0.00
2022-10-30T00:11:18.456Z,0.00
2022-10-30T00:11:49.383Z,0.00
2022-10-30T00:12:20.367Z,0.00
2022-10-30T00:12:51.386Z,0.00
2022-10-30T00:13:22.387Z,0.00
2022-10-30T00:13:53.444Z,0.00
2022-10-30T00:14:24.375Z,0.00
2022-10-30T00:14:55.428Z,0.00
2022-10-30T00:15:38.716Z,0.00
2022-10-30T00:15:58.378Z,0.00
2022-10-30T00:16:28.421Z,0.00
2022-10-30T00:16:59.421Z,0.00
2022-10-30T00:17:30.391Z,0.00
2022-10-30T00:18:01.450Z,0.00
2022-10-30T00:18:32.395Z,0.00
2022-10-30T00:19:03.471Z,0.00
2022-10-30T00:19:34.382Z,0.00
2022-10-30T00:20:05.444Z,0.00
2022-10-30T00:20:36.426Z,0.00
2022-10-30T00:21:08.405Z,0.00
2022-10-30T00:21:38.366Z,0.00
2022-10-30T00:22:09.442Z,0.00
2022-10-30T00:22:40.355Z,0.00
2022-10-30T00:23:11.433Z,0.00
2022-10-30T00:23:42.342Z,0.00
2022-10-30T00:24:13.405Z,0.00
2022-10-30T00:24:44.410Z,0.00
2022-10-30T00:25:15.370Z,0.00
2022-10-30T00:25:46.365Z,0.00
2022-10-30T00:26:18.476Z,0.00
2022-10-30T00:26:48.419Z,0.00
2022-10-30T00:27:19.413Z,0.00
2022-10-30T00:27:50.394Z,0.00
2022-10-30T00:28:21.457Z,0.00
2022-10-30T00:28:52.588Z,0.00
2022-10-30T00:29:23.374Z,0.00
2022-10-30T00:29:54.399Z,0.00
2022-10-30T00:30:37.746Z,0.00
2022-10-30T00:30:56.343Z,0.00
2022-10-30T00:31:28.376Z,0.00
2022-10-30T00:31:58.364Z,0.00
2022-10-30T00:32:29.390Z,0.00
2022-10-30T00:33:00.946Z,0.00
2022-10-30T00:33:31.367Z,0.00
2022-10-30T00:34:02.479Z,0.00
2022-10-30T00:34:33.421Z,0.00
2022-10-30T00:35:04.444Z,0.00
2022-10-30T00:35:35.439Z,0.00
2022-10-30T00:36:06.379Z,0.00
2022-10-30T00:36:38.354Z,0.00
2022-10-30T00:37:08.374Z,0.00
2022-10-30T00:37:39.373Z,0.00
2022-10-30T00:38:10.415Z,0.00
2022-10-30T00:38:41.359Z,0.00
2022-10-30T00:39:12.428Z,0.00
2022-10-30T00:39:43.358Z,0.00
2022-10-30T00:40:14.373Z,0.00
2022-10-30T00:40:45.407Z,0.00
2022-10-30T00:41:16.348Z,0.00
2022-10-30T00:41:48.398Z,0.00
2022-10-30T00:42:18.387Z,0.00
2022-10-30T00:42:49.363Z,0.00
2022-10-30T00:43:20.464Z,0.00
2022-10-30T00:43:51.358Z,0.00
2022-10-30T00:44:22.394Z,0.00
2022-10-30T00:44:53.413Z,0.00
2022-10-30T00:45:36.815Z,0.00
2022-10-30T00:45:55.370Z,0.00
2022-10-30T00:46:26.363Z,0.00
2022-10-30T00:46:58.373Z,0.00
2022-10-30T00:47:28.433Z,0.00
2022-10-30T00:47:59.763Z,0.00
2022-10-30T00:48:30.399Z,0.00
2022-10-30T00:49:01.362Z,0.00
2022-10-30T00:49:32.375Z,0.00
2022-10-30T00:50:03.498Z,0.00
2022-10-30T00:50:34.448Z,0.00
2022-10-30T00:51:05.383Z,0.00
2022-10-30T00:51:36.712Z,0.00
2022-10-30T00:52:08.595Z,0.00
2022-10-30T00:52:38.409Z,0.00
2022-10-30T00:53:09.666Z,0.00
2022-10-30T00:53:40.338Z,0.00
2022-10-30T00:54:12.645Z,0.00
2022-10-30T00:54:42.706Z,0.00
2022-10-30T00:55:13.418Z,0.00
2022-10-30T00:55:44.393Z,0.00
2022-10-30T00:56:20.620Z,0.00
2022-10-30T00:56:51.924Z,0.00
2022-10-30T00:57:18.993Z,0.00
2022-10-30T00:57:48.413Z,0.00
2022-10-30T00:58:19.411Z,0.00
2022-10-30T00:58:50.429Z,0.00
2022-10-30T00:59:21.375Z,0.00
2022-10-30T00:59:52.591Z,0.00
2022-10-30T01:00:35.795Z,0.00
2022-10-30T01:00:55.371Z,0.00
2022-10-30T01:01:25.474Z,0.00
2022-10-30T01:01:57.398Z,0.00
2022-10-30T01:02:28.553Z,0.00
2022-10-30T01:02:59.616Z,0.00
2022-10-30T01:03:29.437Z,0.00
2022-10-30T01:04:00.413Z,0.00
2022-10-30T01:04:31.408Z,0.00
2022-10-30T01:05:02.635Z,0.00
2022-10-30T01:05:33.389Z,0.00
2022-10-30T01:06:04.464Z,0.00
2022-10-30T01:06:35.447Z,0.00
2022-10-30T01:07:06.537Z,0.00
2022-10-30T01:07:39.523Z,0.00
2022-10-30T01:08:08.443Z,0.00
2022-10-30T01:08:39.473Z,0.00
2022-10-30T01:09:10.483Z,0.00
2022-10-30T01:09:41.399Z,0.00
2022-10-30T01:10:12.550Z,0.00
2022-10-30T01:10:43.363Z,0.00
2022-10-30T01:11:14.447Z,0.00
2022-10-30T01:11:45.383Z,0.00
2022-10-30T01:12:16.389Z,0.00
2022-10-30T01:12:48.402Z,0.00
2022-10-30T01:13:18.422Z,0.00
2022-10-30T01:13:49.415Z,0.00
2022-10-30T01:14:20.423Z,0.00
2022-10-30T01:14:51.480Z,0.00
2022-10-30T01:15:34.679Z,0.00
2022-10-30T01:15:53.391Z,0.00
2022-10-30T01:16:24.398Z,0.00
2022-10-30T01:16:55.347Z,0.00
2022-10-30T01:17:26.340Z,0.00
2022-10-30T01:17:58.744Z,0.00
2022-10-30T01:18:28.399Z,0.00
2022-10-30T01:18:59.339Z,0.00
2022-10-30T01:19:30.338Z,0.00
2022-10-30T01:20:32.551Z,0.00
2022-10-30T01:21:03.396Z,0.00
2022-10-30T01:21:34.359Z,0.00
2022-10-30T01:22:05.365Z,0.00
2022-10-30T01:22:36.423Z,0.00
2022-10-30T01:23:08.369Z,0.00
2022-10-30T01:23:38.363Z,0.00
2022-10-30T01:24:09.377Z,0.00
2022-10-30T01:24:40.342Z,0.00
2022-10-30T01:25:11.348Z,0.00
2022-10-30T01:25:42.377Z,0.00
2022-10-30T01:26:13.346Z,0.00
2022-10-30T01:26:44.356Z,0.00
2022-10-30T01:27:15.348Z,0.00
2022-10-30T01:27:46.371Z,0.00
2022-10-30T01:28:18.387Z,0.00
2022-10-30T01:28:48.398Z,0.00
2022-10-30T01:29:19.396Z,0.00
2022-10-30T01:29:50.392Z,0.00
2022-10-30T01:30:33.650Z,0.00
2022-10-30T01:30:52.322Z,0.00
2022-10-30T01:31:23.409Z,0.00
2022-10-30T01:31:54.358Z,0.00
2022-10-30T01:32:25.355Z,0.00
2022-10-30T01:32:56.732Z,0.00
2022-10-30T01:33:28.456Z,0.00
2022-10-30T01:33:58.399Z,0.00
2022-10-30T01:34:29.439Z,0.00
2022-10-30T01:35:00.362Z,0.00
2022-10-30T01:35:31.363Z,0.00
2022-10-30T01:36:02.472Z,0.00
2022-10-30T01:36:33.402Z,0.00
2022-10-30T01:37:04.340Z,0.00
2022-10-30T01:37:35.351Z,0.00
2022-10-30T01:38:06.440Z,0.00
2022-10-30T01:38:38.337Z,0.00
2022-10-30T01:39:08.376Z,0.00
2022-10-30T01:39:39.355Z,0.00
2022-10-30T01:40:10.393Z,0.00
2022-10-30T01:40:41.372Z,0.00
2022-10-30T01:41:12.349Z,0.00
2022-10-30T01:41:43.355Z,0.00
2022-10-30T01:42:14.401Z,0.00
2022-10-30T01:42:45.405Z,0.00
2022-10-30T01:43:16.451Z,0.00
2022-10-30T01:43:48.412Z,0.00
2022-10-30T01:44:18.412Z,0.00
2022-10-30T01:44:49.345Z,0.00
2022-10-30T01:45:32.759Z,0.00
2022-10-30T01:45:51.332Z,0.00
2022-10-30T01:46:22.400Z,0.00
2022-10-30T01:46:53.343Z,0.00
2022-10-30T01:47:24.373Z,0.00
2022-10-30T01:47:55.776Z,0.00
2022-10-30T01:48:26.381Z,0.00
2022-10-30T01:48:58.348Z,0.00
2022-10-30T01:49:28.368Z,0.00
2022-10-30T01:49:59.307Z,0.00
2022-10-30T01:50:30.334Z,0.00
2022-10-30T01:51:01.421Z,0.00
2022-10-30T01:51:32.376Z,0.00
2022-10-30T01:52:03.455Z,0.00
2022-10-30T01:52:34.355Z,0.00
2022-10-30T01:53:05.564Z,0.00
2022-10-30T01:53:36.445Z,0.00
2022-10-30T01:54:08.365Z,0.00
2022-10-30T01:54:38.391Z,0.00
2022-10-30T01:55:09.434Z,0.00
2022-10-30T01:55:40.435Z,0.00
2022-10-30T01:56:11.393Z,0.00
2022-10-30T01:56:43.446Z,0.00
2022-10-30T01:57:16.037Z,0.00
2022-10-30T01:57:45.205Z,0.00
2022-10-30T01:58:15.512Z,0.00
2022-10-30T01:58:46.342Z,0.00
2022-10-30T01:59:18.364Z,0.00
2022-10-30T01:59:48.369Z,0.00
2022-10-30T02:00:49.362Z,0.00
2022-10-30T02:01:21.463Z,0.00
2022-10-30T02:01:52.625Z,0.00
2022-10-30T02:02:27.818Z,0.00
2022-10-30T02:02:54.366Z,0.00
2022-10-30T02:03:25.419Z,0.00
2022-10-30T02:03:56.430Z,0.00
2022-10-30T02:04:28.559Z,0.00
2022-10-30T02:04:59.207Z,0.00
2022-10-30T02:05:29.908Z,0.00
2022-10-30T02:06:00.567Z,0.00
2022-10-30T02:06:36.927Z,0.00
2022-10-30T02:07:02.535Z,0.00
2022-10-30T02:07:33.512Z,0.00
2022-10-30T02:08:04.493Z,0.00
2022-10-30T02:08:35.452Z,0.00
2022-10-30T02:09:07.690Z,0.00
2022-10-30T02:09:38.447Z,0.00
2022-10-30T02:10:09.321Z,0.00
2022-10-30T02:10:43.006Z,0.00
2022-10-30T02:11:10.522Z,0.00
2022-10-30T02:11:41.583Z,0.00
2022-10-30T02:12:12.689Z,0.00
2022-10-30T02:12:43.403Z,0.00
2022-10-30T02:13:14.431Z,0.00
2022-10-30T02:13:45.400Z,0.00
2022-10-30T02:14:16.361Z,0.00
2022-10-30T02:14:48.403Z,0.00
2022-10-30T02:15:30.797Z,0.00
2022-10-30T02:15:49.412Z,0.00
2022-10-30T02:16:20.358Z,0.00
2022-10-30T02:16:51.420Z,0.00
2022-10-30T02:17:23.098Z,0.00
2022-10-30T02:17:53.391Z,0.00
2022-10-30T02:18:25.220Z,0.00
2022-10-30T02:18:55.406Z,0.00
2022-10-30T02:19:26.499Z,0.00
2022-10-30T02:19:58.680Z,0.00
2022-10-30T02:20:28.507Z,0.00
2022-10-30T02:20:59.396Z,0.00
2022-10-30T02:21:30.457Z,0.00
2022-10-30T02:22:01.533Z,0.00
2022-10-30T02:22:32.497Z,0.00
2022-10-30T02:23:03.790Z,0.00
2022-10-30T02:23:34.461Z,0.00
2022-10-30T02:24:05.391Z,0.00
2022-10-30T02:24:36.407Z,0.00
2022-10-30T02:25:08.411Z,0.00
2022-10-30T02:25:38.348Z,0.00
2022-10-30T02:26:09.423Z,0.00
2022-10-30T02:26:40.367Z,0.00
2022-10-30T02:27:11.456Z,0.00
2022-10-30T02:27:42.344Z,0.00
2022-10-30T02:28:13.382Z,0.00
2022-10-30T02:28:44.364Z,0.00
2022-10-30T02:29:15.344Z,0.00
2022-10-30T02:29:46.352Z,0.00
2022-10-30T02:30:30.889Z,0.00
2022-10-30T02:30:48.443Z,0.00
2022-10-30T02:31:19.405Z,0.00
2022-10-30T02:31:50.429Z,0.00
2022-10-30T02:32:21.433Z,0.00
2022-10-30T02:32:52.419Z,0.00
2022-10-30T02:33:23.337Z,0.00
2022-10-30T02:33:54.420Z,0.00
2022-10-30T02:34:25.370Z,0.00
2022-10-30T02:34:56.353Z,0.00
2022-10-30T02:35:28.365Z,0.00
2022-10-30T02:35:58.438Z,0.00
2022-10-30T02:36:29.373Z,0.00
2022-10-30T02:37:00.404Z,0.00
2022-10-30T02:37:31.321Z,0.00
2022-10-30T02:38:02.435Z,0.00
2022-10-30T02:38:33.362Z,0.00
2022-10-30T02:39:04.504Z,0.00
2022-10-30T02:39:35.365Z,0.00
2022-10-30T02:40:06.516Z,0.00
2022-10-30T02:40:38.322Z,0.00
2022-10-30T02:41:08.385Z,0.00
2022-10-30T02:41:39.317Z,0.00
2022-10-30T02:42:10.385Z,0.00
2022-10-30T02:42:41.328Z,0.00
2022-10-30T02:43:12.371Z,0.00
2022-10-30T02:43:43.329Z,0.00
2022-10-30T02:44:14.390Z,0.00
2022-10-30T02:44:45.337Z,0.00
2022-10-30T02:45:28.658Z,0.00
2022-10-30T02:45:48.321Z,0.00
2022-10-30T02:46:18.340Z,0.00
2022-10-30T02:46:49.424Z,0.00
2022-10-30T02:47:20.370Z,0.00
2022-10-30T02:47:51.397Z,0.00
2022-10-30T02:48:22.380Z,0.00
2022-10-30T02:48:53.347Z,0.00
2022-10-30T02:49:24.402Z,0.00
2022-10-30T02:49:55.340Z,0.00
2022-10-30T02:50:26.465Z,0.00
2022-10-30T02:50:58.309Z,0.00
2022-10-30T02:51:28.500Z,0.00
2022-10-30T02:51:59.313Z,0.00
2022-10-30T02:52:30.342Z,0.00
2022-10-30T02:53:02.046Z,0.00
2022-10-30T02:53:32.396Z,0.00
2022-10-30T02:54:03.714Z,0.00
2022-10-30T02:54:35.732Z,0.00
2022-10-30T02:55:06.064Z,0.00
2022-10-30T02:55:38.032Z,0.00
2022-10-30T02:56:09.352Z,0.00
2022-10-30T02:56:38.388Z,0.00
2022-10-30T02:57:14.514Z,0.00
2022-10-30T02:57:40.536Z,0.00
2022-10-30T02:58:11.401Z,0.00
2022-10-30T02:58:42.515Z,0.00
2022-10-30T02:59:13.312Z,0.00
2022-10-30T02:59:44.364Z,0.00
2022-10-30T03:00:31.128Z,0.00
2022-10-30T03:00:46.448Z,0.00
2022-10-30T03:01:18.904Z,0.00
2022-10-30T03:01:48.680Z,0.00
2022-10-30T03:02:19.514Z,0.00
2022-10-30T03:02:50.465Z,0.00
2022-10-30T03:03:24.047Z,0.00
2022-10-30T03:03:52.354Z,0.00
2022-10-30T03:04:23.336Z,0.00
2022-10-30T03:04:54.455Z,0.00
2022-10-30T03:05:25.332Z,0.00
2022-10-30T03:05:56.337Z,0.00
2022-10-30T03:06:28.323Z,0.00
2022-10-30T03:06:58.358Z,0.00
2022-10-30T03:07:29.315Z,0.00
2022-10-30T03:08:00.867Z,0.00
2022-10-30T03:08:31.339Z,0.00
2022-10-30T03:09:02.526Z,0.00
2022-10-30T03:09:33.313Z,0.00
2022-10-30T03:10:04.500Z,0.00
2022-10-30T03:10:35.378Z,0.00
2022-10-30T03:11:06.422Z,0.00
2022-10-30T03:11:38.341Z,0.00
2022-10-30T03:12:08.477Z,0.00
2022-10-30T03:12:39.399Z,0.00
2022-10-30T03:13:10.385Z,0.00
2022-10-30T03:13:41.373Z,0.00
2022-10-30T03:14:12.319Z,0.00
2022-10-30T03:14:43.301Z,0.00
2022-10-30T03:15:26.671Z,0.00
2022-10-30T03:15:45.357Z,0.00
2022-10-30T03:16:16.340Z,0.00
2022-10-30T03:16:48.360Z,0.00
2022-10-30T03:17:18.315Z,0.00
2022-10-30T03:17:49.316Z,0.00
2022-10-30T03:18:20.324Z,0.00
2022-10-30T03:18:51.320Z,0.00
2022-10-30T03:19:23.386Z,0.00
2022-10-30T03:19:53.299Z,0.00
2022-10-30T03:20:24.354Z,0.00
2022-10-30T03:20:55.332Z,0.00
2022-10-30T03:21:26.366Z,0.00
2022-10-30T03:21:58.363Z,0.00
2022-10-30T03:22:28.325Z,0.00
2022-10-30T03:22:59.357Z,0.00
2022-10-30T03:23:30.324Z,0.00
2022-10-30T03:24:01.356Z,0.00
2022-10-30T03:24:32.320Z,0.00
2022-10-30T03:25:03.350Z,0.00
2022-10-30T03:25:34.368Z,0.00
2022-10-30T03:26:05.346Z,0.00
2022-10-30T03:26:36.413Z,0.00
2022-10-30T03:27:08.352Z,0.00
2022-10-30T03:27:38.384Z,0.00
2022-10-30T03:28:09.336Z,0.00
2022-10-30T03:28:40.322Z,0.00
2022-10-30T03:29:11.313Z,0.00
2022-10-30T03:29:42.308Z,0.00
2022-10-30T03:30:25.718Z,0.00
2022-10-30T03:30:44.361Z,0.00
2022-10-30T03:31:15.340Z,0.00
2022-10-30T03:31:46.300Z,0.00
2022-10-30T03:32:18.392Z,0.00
2022-10-30T03:32:48.336Z,0.00
2022-10-30T03:33:19.296Z,0.00
2022-10-30T03:33:50.376Z,0.00
2022-10-30T03:34:21.330Z,0.00
2022-10-30T03:34:52.300Z,0.00
2022-10-30T03:35:23.371Z,0.00
2022-10-30T03:35:54.350Z,0.00
2022-10-30T03:36:25.296Z,0.00
2022-10-30T03:36:56.295Z,0.00
2022-10-30T03:37:28.315Z,0.00
2022-10-30T03:37:58.294Z,0.00
2022-10-30T03:38:29.289Z,0.00
2022-10-30T03:39:00.308Z,0.00
2022-10-30T03:39:31.296Z,0.00
2022-10-30T03:40:02.487Z,0.00
2022-10-30T03:40:33.334Z,0.00
2022-10-30T03:41:04.363Z,0.00
2022-10-30T03:41:35.373Z,0.00
2022-10-30T03:42:06.564Z,0.00
2022-10-30T03:42:38.290Z,0.00
2022-10-30T03:43:08.398Z,0.00
2022-10-30T03:43:39.313Z,0.00
2022-10-30T03:44:10.327Z,0.00
2022-10-30T03:44:41.357Z,0.00
2022-10-30T03:45:24.661Z,0.00
2022-10-30T03:45:43.332Z,0.00
2022-10-30T03:46:14.302Z,0.00
2022-10-30T03:46:45.296Z,0.00
2022-10-30T03:47:16.370Z,0.00
2022-10-30T03:47:48.300Z,0.00
2022-10-30T03:48:18.334Z,0.00
2022-10-30T03:48:49.315Z,0.00
2022-10-30T03:49:20.309Z,0.00
2022-10-30T03:49:51.325Z,0.00
2022-10-30T03:50:22.386Z,0.00
2022-10-30T03:50:53.316Z,0.00
2022-10-30T03:51:24.419Z,0.00
2022-10-30T03:51:55.823Z,0.00
2022-10-30T03:52:26.417Z,0.00
2022-10-30T03:52:58.306Z,0.00
2022-10-30T03:53:28.477Z,0.00
2022-10-30T03:53:59.479Z,0.00
2022-10-30T03:54:30.302Z,0.00
2022-10-30T03:55:01.413Z,0.00
2022-10-30T03:55:32.350Z,0.00
2022-10-30T03:56:03.416Z,0.00
2022-10-30T03:56:34.338Z,0.00
2022-10-30T03:57:19.076Z,0.00
2022-10-30T03:57:36.338Z,0.00
2022-10-30T03:58:09.298Z,0.00
2022-10-30T03:58:38.348Z,0.00
2022-10-30T03:59:13.270Z,0.00
2022-10-30T03:59:40.355Z,0.00
2022-10-30T04:00:24.436Z,0.00
2022-10-30T04:00:42.338Z,0.00
2022-10-30T04:01:13.517Z,0.00
2022-10-30T04:01:44.507Z,0.00
2022-10-30T04:02:15.539Z,0.00
2022-10-30T04:02:46.379Z,0.00
2022-10-30T04:03:18.343Z,0.00
2022-10-30T04:03:48.347Z,0.00
2022-10-30T04:04:19.349Z,0.00
2022-10-30T04:04:50.453Z,0.00
2022-10-30T04:05:21.320Z,0.00
2022-10-30T04:05:52.294Z,0.00
2022-10-30T04:06:23.323Z,0.00
2022-10-30T04:06:54.770Z,0.00
2022-10-30T04:07:25.393Z,0.00
2022-10-30T04:07:56.306Z,0.00
2022-10-30T04:08:28.352Z,0.00
2022-10-30T04:08:58.322Z,0.00
2022-10-30T04:09:29.353Z,0.00
2022-10-30T04:10:00.406Z,0.00
2022-10-30T04:10:31.391Z,0.00
2022-10-30T04:11:02.545Z,0.00
2022-10-30T04:11:33.384Z,0.00
2022-10-30T04:12:04.705Z,0.00
2022-10-30T04:12:35.365Z,0.00
2022-10-30T04:13:06.335Z,0.00
2022-10-30T04:13:38.330Z,0.00
2022-10-30T04:14:08.394Z,0.00
2022-10-30T04:14:39.318Z,0.00
2022-10-30T04:15:22.676Z,0.00
2022-10-30T04:15:41.335Z,0.00
2022-10-30T04:16:12.336Z,0.00
2022-10-30T04:16:43.316Z,0.00
2022-10-30T04:17:14.355Z,0.00
2022-10-30T04:17:45.351Z,0.00
2022-10-30T04:18:16.356Z,0.00
2022-10-30T04:18:48.297Z,0.00
2022-10-30T04:19:18.335Z,0.00
2022-10-30T04:19:49.349Z,0.00
2022-10-30T04:20:20.318Z,0.00
2022-10-30T04:20:51.320Z,0.00
2022-10-30T04:21:22.605Z,0.00
2022-10-30T04:21:53.419Z,0.00
2022-10-30T04:22:24.378Z,0.00
2022-10-30T04:22:55.289Z,0.00
2022-10-30T04:23:26.282Z,0.00
2022-10-30T04:23:58.340Z,0.00
2022-10-30T04:24:28.307Z,0.00
2022-10-30T04:24:59.321Z,0.00
2022-10-30T04:25:30.320Z,0.00
2022-10-30T04:26:01.427Z,0.00
2022-10-30T04:26:32.307Z,0.00
2022-10-30T04:27:03.343Z,0.00
2022-10-30T04:27:34.304Z,0.00
2022-10-30T04:28:05.398Z,0.00
2022-10-30T04:28:36.282Z,0.00
2022-10-30T04:29:08.389Z,0.00
2022-10-30T04:29:38.310Z,0.00
2022-10-30T04:30:21.743Z,0.00
2022-10-30T04:30:40.455Z,0.00
2022-10-30T04:31:11.356Z,0.00
2022-10-30T04:31:42.322Z,0.00
2022-10-30T04:32:13.304Z,0.00
2022-10-30T04:32:44.355Z,0.00
2022-10-30T04:33:15.306Z,0.00
2022-10-30T04:33:46.318Z,0.00
2022-10-30T04:34:18.280Z,0.00
2022-10-30T04:34:48.313Z,0.00
2022-10-30T04:35:19.308Z,0.00
2022-10-30T04:35:50.353Z,0.00
2022-10-30T04:36:21.338Z,0.00
2022-10-30T04:36:52.287Z,0.00
2022-10-30T04:37:23.305Z,0.00
2022-10-30T04:37:54.292Z,0.00
2022-10-30T04:38:25.290Z,0.00
2022-10-30T04:38:56.350Z,0.00
2022-10-30T04:39:28.320Z,0.00
2022-10-30T04:39:58.385Z,0.00
2022-10-30T04:40:29.302Z,0.00
2022-10-30T04:41:00.382Z,0.00
2022-10-30T04:41:31.297Z,0.00
2022-10-30T04:42:02.616Z,0.00
2022-10-30T04:42:33.289Z,0.00
2022-10-30T04:43:04.313Z,0.00
2022-10-30T04:43:35.373Z,0.00
2022-10-30T04:44:06.374Z,0.00
2022-10-30T04:44:38.288Z,0.00
2022-10-30T04:45:20.716Z,0.00
2022-10-30T04:45:39.300Z,0.00
2022-10-30T04:46:10.309Z,0.00
2022-10-30T04:46:41.371Z,0.00
2022-10-30T04:47:12.305Z,0.00
2022-10-30T04:47:43.361Z,0.00
2022-10-30T04:48:14.304Z,0.00
2022-10-30T04:48:45.277Z,0.00
2022-10-30T04:49:16.308Z,0.00
2022-10-30T04:49:48.296Z,0.00
2022-10-30T04:50:18.398Z,0.00
2022-10-30T04:50:49.302Z,0.00
2022-10-30T04:51:20.290Z,0.00
2022-10-30T04:51:51.375Z,0.00
2022-10-30T04:52:22.423Z,0.00
2022-10-30T04:52:53.309Z,0.00
2022-10-30T04:53:24.747Z,0.00
2022-10-30T04:53:55.390Z,0.00
2022-10-30T04:54:26.300Z,0.00
2022-10-30T04:54:58.318Z,0.00
2022-10-30T04:55:32.517Z,0.00
2022-10-30T04:56:15.969Z,0.00
2022-10-30T04:56:32.723Z,0.00
2022-10-30T04:57:03.149Z,0.00
2022-10-30T04:57:33.102Z,0.00
2022-10-30T04:58:04.576Z,0.00
2022-10-30T04:58:34.309Z,0.00
2022-10-30T04:59:05.486Z,0.00
2022-10-30T04:59:36.446Z,0.00
2022-10-30T05:00:21.976Z,0.00
2022-10-30T05:00:38.304Z,0.00
2022-10-30T05:01:09.334Z,0.00
2022-10-30T05:01:40.471Z,0.00
2022-10-30T05:02:11.481Z,0.00
2022-10-30T05:02:45.076Z,0.00
2022-10-30T05:03:13.324Z,0.00
2022-10-30T05:03:44.289Z,0.00
2022-10-30T05:04:15.289Z,0.00
2022-10-30T05:04:46.333Z,0.00
2022-10-30T05:05:18.322Z,0.00
2022-10-30T05:05:48.299Z,0.00
2022-10-30T05:06:19.604Z,0.00
2022-10-30T05:06:50.327Z,0.00
2022-10-30T05:07:21.292Z,0.00
2022-10-30T05:07:52.306Z,0.00
2022-10-30T05:08:23.296Z,0.00
2022-10-30T05:08:54.298Z,0.00
2022-10-30T05:09:25.470Z,0.00
2022-10-30T05:09:56.310Z,0.00
2022-10-30T05:10:28.375Z,0.00
2022-10-30T05:10:58.287Z,0.00
2022-10-30T05:11:29.306Z,0.00
2022-10-30T05:12:00.369Z,0.00
2022-10-30T05:12:31.301Z,0.00
2022-10-30T05:13:02.429Z,0.00
2022-10-30T05:13:33.346Z,0.00
2022-10-30T05:14:04.328Z,0.00
2022-10-30T05:14:35.412Z,0.00
2022-10-30T05:15:18.672Z,0.00
2022-10-30T05:15:38.347Z,0.00
2022-10-30T05:16:08.326Z,0.00
2022-10-30T05:16:39.291Z,0.00
2022-10-30T05:17:10.329Z,0.00
2022-10-30T05:17:41.543Z,0.00
2022-10-30T05:18:12.356Z,0.00
2022-10-30T05:18:43.295Z,0.00
2022-10-30T05:19:14.340Z,0.00
2022-10-30T05:19:45.320Z,0.00
2022-10-30T05:20:18.870Z,0.00
2022-10-30T05:20:48.285Z,0.00
2022-10-30T05:21:18.292Z,0.00
2022-10-30T05:21:49.336Z,0.00
2022-10-30T05:22:20.296Z,0.00
2022-10-30T05:22:51.347Z,0.00
2022-10-30T05:23:22.335Z,0.00
2022-10-30T05:23:53.308Z,0.00
2022-10-30T05:24:24.281Z,0.00
2022-10-30T05:24:55.292Z,0.00
2022-10-30T05:25:26.319Z,0.00
2022-10-30T05:25:58.331Z,0.00
2022-10-30T05:26:28.280Z,0.00
2022-10-30T05:26:59.344Z,0.00
2022-10-30T05:27:30.291Z,0.00
2022-10-30T05:28:01.731Z,0.00
2022-10-30T05:28:32.276Z,0.00
2022-10-30T05:29:03.322Z,0.00
2022-10-30T05:29:34.311Z,0.00
2022-10-30T05:30:17.765Z,0.00
2022-10-30T05:30:36.327Z,0.00
2022-10-30T05:31:08.319Z,0.00
2022-10-30T05:31:38.277Z,0.00
2022-10-30T05:32:09.374Z,0.00
2022-10-30T05:32:40.344Z,0.00
2022-10-30T05:33:11.312Z,0.00
2022-10-30T05:33:42.291Z,0.00
2022-10-30T05:34:13.294Z,0.00
2022-10-30T05:34:44.274Z,0.00
2022-10-30T05:35:15.287Z,0.00
2022-10-30T05:35:46.314Z,0.00
2022-10-30T05:36:18.277Z,0.00
2022-10-30T05:36:48.288Z,0.00
2022-10-30T05:37:19.287Z,0.00
2022-10-30T05:37:50.337Z,0.00
2022-10-30T05:38:21.271Z,0.00
2022-10-30T05:38:52.290Z,0.00
2022-10-30T05:39:23.266Z,0.00
2022-10-30T05:39:54.283Z,0.00
2022-10-30T05:40:25.450Z,0.00
2022-10-30T05:40:56.314Z,0.00
2022-10-30T05:41:28.319Z,0.00
2022-10-30T05:41:58.269Z,0.00
2022-10-30T05:42:29.291Z,0.00
2022-10-30T05:43:00.868Z,0.00
2022-10-30T05:43:31.324Z,0.00
2022-10-30T05:44:02.424Z,0.00
2022-10-30T05:44:58.543Z,0.00
2022-10-30T05:45:16.658Z,0.00
2022-10-30T05:45:35.337Z,0.00
2022-10-30T05:46:06.281Z,0.00
2022-10-30T05:46:38.269Z,0.00
2022-10-30T05:47:08.290Z,0.00
2022-10-30T05:47:39.256Z,0.00
2022-10-30T05:48:10.323Z,0.00
2022-10-30T05:48:41.285Z,0.00
2022-10-30T05:49:12.304Z,0.00
2022-10-30T05:49:43.267Z,0.00
2022-10-30T05:50:14.328Z,0.00
2022-10-30T05:50:45.260Z,0.36
2022-10-30T05:51:16.320Z,0.36
2022-10-30T05:51:48.423Z,0.36
2022-10-30T05:52:19.653Z,0.36
2022-10-30T05:52:49.419Z,0.00
2022-10-30T05:53:20.317Z,0.36
2022-10-30T05:53:51.363Z,0.85
2022-10-30T05:54:22.384Z,1.22
2022-10-30T05:54:53.309Z,1.22
2022-10-30T05:55:24.329Z,1.22
2022-10-30T05:55:55.330Z,2.08
2022-10-30T05:56:26.372Z,1.71
2022-10-30T05:56:58.387Z,2.57
2022-10-30T05:57:28.384Z,2.08
2022-10-30T05:57:59.645Z,2.08
2022-10-30T05:58:32.196Z,2.57
2022-10-30T05:59:02.954Z,2.57
2022-10-30T05:59:32.861Z,2.08
2022-10-30T06:00:17.325Z,2.94
2022-10-30T06:00:35.962Z,2.94
2022-10-30T06:01:05.404Z,2.94
2022-10-30T06:01:36.463Z,2.94
2022-10-30T06:02:08.470Z,4.28
2022-10-30T06:02:38.454Z,4.28
2022-10-30T06:03:09.479Z,4.77
2022-10-30T06:03:40.600Z,5.14
2022-10-30T06:04:11.432Z,5.14
2022-10-30T06:04:42.365Z,5.63
2022-10-30T06:05:13.485Z,5.99
2022-10-30T06:05:44.322Z,5.14
2022-10-30T06:06:15.383Z,5.99
2022-10-30T06:06:46.399Z,5.99
2022-10-30T06:07:18.436Z,6.48
2022-10-30T06:07:48.391Z,7.34
2022-10-30T06:08:19.437Z,7.34
2022-10-30T06:08:50.441Z,6.85
2022-10-30T06:09:21.336Z,7.34
2022-10-30T06:09:52.368Z,7.70
2022-10-30T06:10:23.414Z,7.70
2022-10-30T06:10:54.359Z,8.56
2022-10-30T06:11:25.347Z,8.56
2022-10-30T06:11:56.393Z,9.54
2022-10-30T06:12:28.354Z,9.91
2022-10-30T06:12:58.763Z,9.91
2022-10-30T06:13:29.387Z,10.39
2022-10-30T06:14:00.461Z,11.25
2022-10-30T06:14:31.373Z,11.62
2022-10-30T06:15:14.927Z,12.11
2022-10-30T06:15:33.420Z,12.48
2022-10-30T06:16:04.396Z,12.48
2022-10-30T06:16:35.310Z,12.97
2022-10-30T06:17:06.363Z,13.82
2022-10-30T06:17:38.347Z,14.31
2022-10-30T06:18:08.396Z,14.68
2022-10-30T06:18:39.329Z,15.53
2022-10-30T06:19:15.512Z,16.02
2022-10-30T06:19:41.354Z,16.39
2022-10-30T06:20:12.470Z,16.39
2022-10-30T06:20:43.424Z,17.25
2022-10-30T06:21:14.356Z,17.25
2022-10-30T06:21:45.394Z,18.60
2022-10-30T06:22:16.387Z,18.60
2022-10-30T06:22:48.346Z,19.08
2022-10-30T06:23:18.385Z,19.08
2022-10-30T06:23:49.424Z,19.45
2022-10-30T06:24:20.371Z,19.94
2022-10-30T06:24:51.383Z,20.80
2022-10-30T06:25:22.395Z,20.80
2022-10-30T06:25:53.316Z,22.02
2022-10-30T06:26:24.335Z,22.51
2022-10-30T06:26:55.389Z,22.87
2022-10-30T06:27:26.330Z,23.85
2022-10-30T06:27:58.799Z,23.85
2022-10-30T06:28:28.335Z,23.85
2022-10-30T06:28:59.340Z,24.71
2022-10-30T06:29:30.423Z,24.71
2022-10-30T06:30:13.747Z,25.56
2022-10-30T06:30:32.339Z,25.94
2022-10-30T06:31:03.492Z,26.42
2022-10-30T06:31:34.396Z,26.79
2022-10-30T06:32:06.772Z,27.28
2022-10-30T06:32:36.360Z,28.14
2022-10-30T06:33:08.421Z,27.28
2022-10-30T06:33:38.411Z,28.99
2022-10-30T06:34:09.330Z,28.63
2022-10-30T06:34:40.382Z,29.48
2022-10-30T06:35:11.383Z,29.85
2022-10-30T06:35:42.351Z,29.48
2022-10-30T06:36:13.332Z,30.70
2022-10-30T06:36:44.411Z,30.34
2022-10-30T06:37:15.545Z,30.70
2022-10-30T06:37:46.336Z,30.70
2022-10-30T06:38:18.391Z,31.19
2022-10-30T06:38:48.347Z,31.19
2022-10-30T06:39:19.374Z,31.19
2022-10-30T06:39:50.347Z,30.70
2022-10-30T06:40:21.366Z,31.56
2022-10-30T06:40:52.350Z,32.42
2022-10-30T06:41:29.139Z,32.42
2022-10-30T06:41:54.327Z,32.42
2022-10-30T06:42:25.391Z,32.42
2022-10-30T06:42:56.811Z,33.39
2022-10-30T06:43:28.363Z,34.25
2022-10-30T06:43:58.329Z,33.76
2022-10-30T06:44:29.447Z,33.76
2022-10-30T06:45:13.433Z,34.62
2022-10-30T06:45:31.413Z,35.48
2022-10-30T06:46:02.584Z,35.48
2022-10-30T06:46:33.919Z,36.33
2022-10-30T06:47:04.517Z,36.33
2022-10-30T06:47:35.361Z,37.19
2022-10-30T06:48:06.384Z,36.82
2022-10-30T06:48:38.397Z,36.82
2022-10-30T06:49:08.460Z,37.19
2022-10-30T06:49:39.473Z,38.17
2022-10-30T06:50:10.369Z,38.53
2022-10-30T06:50:41.596Z,39.02
2022-10-30T06:51:12.358Z,39.88
2022-10-30T06:51:43.369Z,39.88
2022-10-30T06:52:14.466Z,40.73